Time;durP1;ratioP1;P1;durP2;ratioP2;P2;SDS_P1;SDS_P2;PMS_P1;PMS_P2;Temp;Humidity;BMP_temperature;BMP_pressure;BME280_temperature;BME280_humidity;BME280_pressure;Samples;Min_cycle;Max_cycle;Signal;HPM_P1;HPM_P2
2024/04/26 00:00:12;;;;;;;7.10;5.45;;;2.80;99.50;;;;;;5413398;26;20050;-92
2024/04/26 00:02:38;;;;;;;6.45;4.40;;;2.80;99.30;;;;;;5405315;26;19996;-91
2024/04/26 00:05:04;;;;;;;7.22;4.70;;;2.90;99.50;;;;;;5413183;26;20003;-88
2024/04/26 00:07:29;;;;;;;5.57;4.53;;;2.80;99.00;;;;;;5406481;26;19996;-90
2024/04/26 00:09:55;;;;;;;7.75;5.05;;;2.80;98.70;;;;;;5403088;26;20014;-88
2024/04/26 00:12:21;;;;;;;7.75;4.07;;;2.70;99.10;;;;;;5409337;26;20012;-89
2024/04/26 00:14:46;;;;;;;6.95;4.68;;;2.70;99.30;;;;;;5415194;26;19996;-89
2024/04/26 00:17:12;;;;;;;5.07;3.78;;;2.70;99.50;;;;;;5412342;26;20066;-92
2024/04/26 00:19:37;;;;;;;6.40;4.50;;;2.80;99.90;;;;;;5391190;26;20006;-89
2024/04/26 00:22:03;;;;;;;7.15;4.30;;;2.80;99.90;;;;;;5424885;26;20004;-88
2024/04/26 00:24:29;;;;;;;7.90;5.10;;;2.80;99.90;;;;;;5411581;26;20003;-91
2024/04/26 00:26:54;;;;;;;7.40;4.95;;;2.90;99.90;;;;;;5419909;26;20120;-88
2024/04/26 00:29:20;;;;;;;7.10;5.28;;;2.90;99.90;;;;;;5396651;26;20015;-90
2024/04/26 00:31:46;;;;;;;5.40;3.97;;;2.90;99.70;;;;;;5380831;26;20010;-90
2024/04/26 00:34:12;;;;;;;6.15;4.47;;;2.80;99.20;;;;;;5397473;26;20011;-89
2024/04/26 00:36:41;;;;;;;6.03;4.60;;;2.80;98.80;;;;;;5422507;26;20007;-88
2024/04/26 00:39:07;;;;;;;5.25;3.92;;;2.70;99.30;;;;;;5408414;26;20074;-93
2024/04/26 00:41:33;;;;;;;6.95;4.35;;;2.80;99.90;;;;;;5394266;26;20011;-91
2024/04/26 00:44:12;;;;;;;4.82;3.97;;;2.70;99.80;;;;;;5420887;26;20016;-89
2024/04/26 00:46:44;;;;;;;5.70;4.55;;;2.70;99.90;;;;;;5393657;26;20012;-89
2024/04/26 00:49:10;;;;;;;5.82;4.10;;;2.60;99.90;;;;;;5409909;26;20039;-90
2024/04/26 00:51:37;;;;;;;5.70;4.10;;;2.70;99.90;;;;;;5409246;26;19997;-90
2024/04/26 00:54:04;;;;;;;6.88;4.45;;;2.60;99.60;;;;;;5407485;26;19996;-89
2024/04/26 00:56:30;;;;;;;7.05;4.53;;;2.60;99.60;;;;;;5429261;26;20505;-89
2024/04/26 00:58:57;;;;;;;6.63;4.00;;;2.60;99.90;;;;;;5418203;26;20043;-88
2024/04/26 01:01:23;;;;;;;6.65;4.15;;;2.50;99.70;;;;;;5412152;26;20015;-89
2024/04/26 01:03:49;;;;;;;6.50;4.20;;;2.50;99.30;;;;;;5404517;26;19996;-89
2024/04/26 01:06:17;;;;;;;6.07;4.25;;;2.50;99.50;;;;;;5395988;26;20003;-89
2024/04/26 01:08:42;;;;;;;7.05;4.55;;;2.60;99.90;;;;;;5386159;26;19999;-92
2024/04/26 01:11:11;;;;;;;6.50;5.00;;;2.70;99.90;;;;;;5430352;26;20011;-88
2024/04/26 01:13:37;;;;;;;;;;;2.70;99.90;;;;;;5409113;26;19992;-87
2024/04/26 01:16:04;;;;;;;8.57;5.00;;;2.60;99.90;;;;;;5411195;26;19953;-89
2024/04/26 01:18:30;;;;;;;8.00;4.88;;;2.50;99.90;;;;;;5408449;26;20000;-90
2024/04/26 01:20:56;;;;;;;9.05;5.07;;;2.50;99.90;;;;;;5429174;26;20069;-89
2024/04/26 01:23:23;;;;;;;8.43;5.13;;;2.40;99.90;;;;;;5414397;26;19992;-88
2024/04/26 01:26:03;;;;;;;9.35;5.55;;;2.50;99.90;;;;;;5388292;26;20008;-91
2024/04/26 01:28:29;;;;;;;7.43;5.00;;;2.50;99.90;;;;;;5408367;26;20007;-88
2024/04/26 01:30:55;;;;;;;8.02;5.78;;;2.60;99.90;;;;;;5389149;26;20042;-90
2024/04/26 01:33:21;;;;;;;9.13;4.70;;;2.60;99.90;;;;;;5426826;26;20046;-89
2024/04/26 01:35:47;;;;;;;9.30;5.32;;;2.60;99.90;;;;;;5413677;26;20011;-90
2024/04/26 01:38:13;;;;;;;7.25;4.90;;;2.50;99.90;;;;;;5419591;26;20513;-89
2024/04/26 01:40:38;;;;;;;8.07;6.25;;;2.40;99.90;;;;;;5413529;26;20409;-90
2024/04/26 01:43:05;;;;;;;6.82;5.72;;;2.40;99.90;;;;;;5397244;26;19996;-89
2024/04/26 01:45:30;;;;;;;6.65;4.75;;;2.40;99.90;;;;;;5423668;26;20256;-89
2024/04/26 01:47:56;;;;;;;9.32;6.18;;;2.30;99.90;;;;;;5423894;26;19999;-90
2024/04/26 01:50:22;;;;;;;8.13;4.07;;;2.30;99.90;;;;;;5399603;26;19996;-89
2024/04/26 01:52:50;;;;;;;10.95;6.10;;;2.20;99.90;;;;;;5428906;26;19999;-88
2024/04/26 01:55:16;;;;;;;6.53;5.82;;;2.20;99.90;;;;;;5427665;26;20741;-88
2024/04/26 01:57:41;;;;;;;7.72;4.45;;;2.30;99.90;;;;;;5414306;26;20002;-91
2024/04/26 02:00:09;;;;;;;7.65;5.03;;;2.30;99.90;;;;;;5413500;26;19999;-90
2024/04/26 02:02:35;;;;;;;13.90;7.28;;;2.30;99.90;;;;;;5399106;26;20011;-89
2024/04/26 02:05:02;;;;;;;7.93;5.07;;;2.20;99.90;;;;;;5415738;26;19997;-88
2024/04/26 02:07:28;;;;;;;5.38;4.57;;;2.20;99.90;;;;;;5427235;26;20122;-90
2024/04/26 02:09:54;;;;;;;7.40;4.80;;;2.20;99.90;;;;;;5428200;26;20049;-90
2024/04/26 02:12:19;;;;;;;7.40;4.53;;;2.30;99.90;;;;;;5412440;26;20049;-92
2024/04/26 02:14:45;;;;;;;9.60;6.45;;;2.30;99.90;;;;;;5428688;26;20669;-89
2024/04/26 02:17:14;;;;;;;5.80;4.30;;;2.30;99.90;;;;;;5424383;26;20004;-89
2024/04/26 02:19:40;;;;;;;8.70;5.70;;;2.30;99.90;;;;;;5428610;26;20010;-88
2024/04/26 02:22:06;;;;;;;8.32;6.05;;;2.30;99.90;;;;;;5413077;26;20084;-91
2024/04/26 02:24:32;;;;;;;7.97;5.25;;;2.30;99.90;;;;;;5413682;26;20011;-90
2024/04/26 02:26:58;;;;;;;6.78;4.60;;;2.30;99.90;;;;;;5427918;26;20015;-90
2024/04/26 02:29:23;;;;;;;5.82;4.35;;;2.40;99.90;;;;;;5424576;26;20010;-91
2024/04/26 02:31:49;;;;;;;6.78;5.00;;;2.30;99.90;;;;;;5415076;26;20003;-88
2024/04/26 02:34:18;;;;;;;7.22;5.22;;;2.30;99.90;;;;;;5412710;26;19996;-90
2024/04/26 02:36:44;;;;;;;8.48;5.07;;;2.30;99.90;;;;;;5416058;26;20458;-88
2024/04/26 02:39:10;;;;;;;7.82;5.43;;;2.40;99.90;;;;;;5414916;26;20000;-90
2024/04/26 02:41:36;;;;;;;9.90;5.43;;;2.30;99.90;;;;;;5373720;26;19996;-89
2024/04/26 02:44:05;;;;;;;7.40;5.32;;;2.20;99.90;;;;;;5390685;26;20019;-90
2024/04/26 02:46:35;;;;;;;7.25;5.22;;;2.20;99.90;;;;;;5411485;26;19999;-89
2024/04/26 02:49:04;;;;;;;7.53;5.78;;;2.20;99.90;;;;;;5426488;26;20077;-89
2024/04/26 02:51:30;;;;;;;7.72;6.10;;;2.20;99.90;;;;;;5425843;26;20441;-88
2024/04/26 02:53:56;;;;;;;6.95;5.47;;;2.20;99.90;;;;;;5425646;26;20036;-88
2024/04/26 02:56:21;;;;;;;9.77;6.15;;;2.30;99.90;;;;;;5408998;26;20011;-91
2024/04/26 02:58:47;;;;;;;8.07;5.13;;;2.30;99.90;;;;;;5401195;26;20618;-89
2024/04/26 03:01:13;;;;;;;6.53;5.20;;;2.40;99.90;;;;;;5377700;26;20046;-88
2024/04/26 03:03:42;;;;;;;9.35;5.63;;;2.40;99.90;;;;;;5414156;26;19996;-89
2024/04/26 03:06:10;;;;;;;7.60;5.45;;;2.40;99.90;;;;;;5396057;26;20010;-89
2024/04/26 03:08:36;;;;;;;8.02;5.72;;;2.50;99.90;;;;;;5397979;26;20025;-89
2024/04/26 03:11:02;;;;;;;7.05;5.47;;;2.40;99.90;;;;;;5398645;26;20008;-88
2024/04/26 03:13:28;;;;;;;8.55;5.38;;;2.30;99.90;;;;;;5396548;26;20266;-89
2024/04/26 03:15:53;;;;;;;8.00;6.45;;;2.30;99.90;;;;;;5413075;26;20141;-90
2024/04/26 03:18:19;;;;;;;11.50;6.20;;;2.40;99.90;;;;;;5359193;26;20005;-89
2024/04/26 03:20:45;;;;;;;7.95;4.65;;;2.30;99.90;;;;;;5378916;26;20000;-89
2024/04/26 03:23:12;;;;;;;8.15;6.50;;;2.40;99.90;;;;;;5391370;26;20032;-89
2024/04/26 03:25:37;;;;;;;9.45;5.90;;;2.30;99.90;;;;;;5360788;26;20535;-91
2024/04/26 03:28:03;;;;;;;10.30;6.18;;;2.30;99.90;;;;;;5400209;26;20004;-91
2024/04/26 03:30:29;;;;;;;7.90;5.53;;;2.40;99.90;;;;;;5405855;26;20108;-88
2024/04/26 03:32:55;;;;;;;7.97;6.35;;;2.50;99.90;;;;;;5405371;26;20008;-90
2024/04/26 03:35:20;;;;;;;9.73;6.03;;;2.50;99.90;;;;;;5390949;26;20007;-89
2024/04/26 03:37:47;;;;;;;8.98;5.18;;;2.50;99.90;;;;;;5406954;26;20455;-90
2024/04/26 03:40:13;;;;;;;8.10;5.32;;;2.70;99.90;;;;;;5404314;26;20014;-90
2024/04/26 03:42:42;;;;;;;6.55;5.57;;;2.70;99.90;;;;;;5405280;26;20004;-92
2024/04/26 03:45:08;;;;;;;6.40;4.93;;;2.70;99.90;;;;;;5367930;26;20011;-90
2024/04/26 03:47:34;;;;;;;8.48;4.88;;;2.70;99.90;;;;;;5396753;26;20521;-92
2024/04/26 03:50:02;;;;;;;8.02;5.70;;;2.80;99.90;;;;;;5399896;26;20015;-88
2024/04/26 03:52:28;;;;;;;7.93;5.03;;;2.80;99.90;;;;;;5406732;26;20032;-88
2024/04/26 03:54:54;;;;;;;10.10;5.95;;;2.90;99.90;;;;;;5404763;26;20095;-88
2024/04/26 03:57:20;;;;;;;9.75;5.43;;;2.90;99.90;;;;;;5403923;26;20007;-91
2024/04/26 03:59:45;;;;;;;8.45;5.53;;;3.00;99.90;;;;;;5399976;26;20000;-88
2024/04/26 04:02:11;;;;;;;10.75;5.65;;;3.00;99.90;;;;;;5372257;26;20827;-89
2024/04/26 04:04:37;;;;;;;10.25;6.28;;;3.10;99.90;;;;;;5403331;26;20457;-90
2024/04/26 04:07:02;;;;;;;10.57;6.65;;;3.10;99.90;;;;;;5409070;26;19992;-90
2024/04/26 04:09:28;;;;;;;10.00;5.80;;;3.00;99.90;;;;;;5390190;26;20050;-90
2024/04/26 04:11:55;;;;;;;8.88;5.75;;;3.10;99.90;;;;;;5394199;26;20000;-89
2024/04/26 04:14:20;;;;;;;9.68;6.13;;;3.00;99.90;;;;;;5402796;26;20039;-88
2024/04/26 04:16:46;;;;;;;11.63;6.07;;;3.10;99.90;;;;;;5387264;26;19991;-88
2024/04/26 04:19:12;;;;;;;9.43;6.15;;;3.10;99.90;;;;;;5424982;26;20006;-90
2024/04/26 04:21:38;;;;;;;8.00;6.00;;;3.20;99.90;;;;;;5428657;26;20007;-88
2024/04/26 04:24:04;;;;;;;13.48;6.07;;;3.20;99.90;;;;;;5417065;26;19996;-90
2024/04/26 04:26:29;;;;;;;13.45;8.02;;;3.20;99.90;;;;;;5414058;26;20003;-90
2024/04/26 04:28:57;;;;;;;24.85;14.65;;;3.20;99.90;;;;;;5427327;26;20523;-91
2024/04/26 04:31:27;;;;;;;23.92;18.40;;;3.30;99.90;;;;;;5425599;26;20002;-87
2024/04/26 04:33:53;;;;;;;16.45;12.85;;;3.40;99.90;;;;;;5404532;26;20000;-90
2024/04/26 04:36:19;;;;;;;13.73;8.50;;;3.30;99.90;;;;;;5398181;26;20011;-91
2024/04/26 04:38:44;;;;;;;14.30;8.43;;;3.40;99.90;;;;;;5430515;26;20006;-93
2024/04/26 04:41:15;;;;;;;11.00;8.27;;;3.40;99.90;;;;;;5430426;26;20341;-89
2024/04/26 04:43:43;;;;;;;11.85;7.60;;;3.50;99.90;;;;;;5393054;26;20009;-88
2024/04/26 04:46:09;;;;;;;8.13;6.35;;;3.40;99.90;;;;;;5409476;26;20073;-93
2024/04/26 04:48:38;;;;;;;12.32;9.35;;;3.50;99.90;;;;;;5383819;26;20007;-91
2024/04/26 04:51:16;;;;;;;11.95;8.05;;;3.60;99.90;;;;;;5417532;26;20290;-91
2024/04/26 04:53:41;;;;;;;12.48;8.15;;;3.60;99.90;;;;;;5394610;26;20456;-90
2024/04/26 04:56:07;;;;;;;9.52;7.75;;;3.70;99.90;;;;;;5408011;26;20004;-96
2024/04/26 04:58:33;;;;;;;10.95;6.68;;;3.70;99.90;;;;;;5416886;26;20000;-92
2024/04/26 05:00:58;;;;;;;14.88;6.70;;;3.80;99.90;;;;;;5405118;26;20011;-92
2024/04/26 05:03:24;;;;;;;8.60;5.55;;;3.80;99.90;;;;;;5406316;26;20004;-91
2024/04/26 05:05:50;;;;;;;12.20;7.00;;;3.70;99.90;;;;;;5423294;26;20517;-90
2024/04/26 05:08:15;;;;;;;8.82;5.60;;;3.70;99.90;;;;;;5413306;26;20000;-89
2024/04/26 05:10:41;;;;;;;10.98;6.07;;;3.80;99.90;;;;;;5430500;26;20064;-92
2024/04/26 05:13:07;;;;;;;9.02;5.97;;;3.90;99.90;;;;;;5430622;26;20114;-92
2024/04/26 05:15:32;;;;;;;9.35;6.10;;;3.90;99.90;;;;;;5407426;26;20010;-90
2024/04/26 05:17:58;;;;;;;9.68;6.75;;;3.90;99.90;;;;;;5393384;26;20241;-90
2024/04/26 05:20:24;;;;;;;11.35;8.23;;;4.00;99.90;;;;;;5388768;26;19996;-91
2024/04/26 05:22:50;;;;;;;8.32;6.00;;;4.00;99.90;;;;;;5422679;26;20004;-89
2024/04/26 05:25:20;;;;;;;10.43;6.95;;;4.10;99.90;;;;;;5411559;26;20000;-90
2024/04/26 05:27:46;;;;;;;10.75;7.55;;;4.10;99.90;;;;;;5416522;26;20004;-91
2024/04/26 05:30:14;;;;;;;8.82;6.60;;;4.20;99.90;;;;;;5414333;26;20032;-91
2024/04/26 05:32:40;;;;;;;10.35;6.70;;;4.20;99.90;;;;;;5424584;26;19996;-89
2024/04/26 05:35:07;;;;;;;11.30;6.57;;;4.30;99.90;;;;;;5420041;26;20041;-92
2024/04/26 05:37:36;;;;;;;13.57;7.88;;;4.40;99.90;;;;;;5384551;26;20000;-91
2024/04/26 05:40:02;;;;;;;21.60;10.55;;;4.50;99.90;;;;;;5405539;26;20020;-90
2024/04/26 05:42:30;;;;;;;15.38;8.98;;;4.50;99.90;;;;;;5412970;26;20006;-92
2024/04/26 05:44:56;;;;;;;13.07;7.88;;;4.60;99.90;;;;;;5410806;26;20012;-91
2024/04/26 05:47:22;;;;;;;10.63;6.03;;;4.70;99.90;;;;;;5395189;26;20058;-96
2024/04/26 05:49:47;;;;;;;10.02;6.68;;;4.80;99.90;;;;;;5391259;26;20008;-94
2024/04/26 05:52:13;;;;;;;10.25;6.70;;;4.80;99.90;;;;;;5373973;26;20004;-88
2024/04/26 05:54:39;;;;;;;10.88;7.47;;;4.90;99.90;;;;;;5343734;26;20361;-92
2024/04/26 05:57:04;;;;;;;11.98;7.10;;;4.90;99.90;;;;;;5364311;26;20000;-92
2024/04/26 05:59:30;;;;;;;9.68;6.28;;;5.00;99.90;;;;;;5393171;26;20004;-91
2024/04/26 06:01:55;;;;;;;12.10;6.93;;;5.00;99.90;;;;;;5384165;26;19996;-94
2024/04/26 06:04:21;;;;;;;36.10;33.10;;;5.00;99.90;;;;;;5387607;26;19999;-91
2024/04/26 06:06:47;;;;;;;9.25;6.80;;;5.10;99.90;;;;;;5388232;26;20004;-94
2024/04/26 06:09:19;;;;;;;12.48;7.53;;;5.10;99.90;;;;;;5377337;26;20019;-95
2024/04/26 06:11:44;;;;;;;9.90;7.07;;;5.20;99.90;;;;;;5377061;26;20684;-94
2024/04/26 06:14:10;;;;;;;10.43;7.38;;;5.20;99.90;;;;;;5354622;26;21509;-92
2024/04/26 06:16:36;;;;;;;11.15;7.45;;;5.40;99.90;;;;;;5389614;26;20076;-91
2024/04/26 06:19:02;;;;;;;10.90;9.55;;;5.40;99.90;;;;;;5362149;26;20261;-92
2024/04/26 06:21:27;;;;;;;11.70;8.48;;;5.50;99.90;;;;;;5352254;26;19996;-92
2024/04/26 06:23:53;;;;;;;14.40;8.40;;;5.50;99.90;;;;;;5367477;26;20051;-96
2024/04/26 06:26:19;;;;;;;12.00;7.45;;;5.60;99.90;;;;;;5358499;26;20088;-92
2024/04/26 06:28:56;;;;;;;12.80;7.20;;;5.80;99.90;;;;;;5351262;26;20031;-92
2024/04/26 06:31:24;;;;;;;13.90;8.35;;;5.90;99.90;;;;;;5371268;26;20008;-92
2024/04/26 06:33:49;;;;;;;15.32;8.65;;;5.80;99.90;;;;;;5321795;26;20020;-89
2024/04/26 06:36:22;;;;;;;11.98;7.63;;;6.00;99.90;;;;;;5365157;26;20065;-93
2024/04/26 06:38:49;;;;;;;10.55;7.72;;;6.10;99.90;;;;;;5382141;26;20001;-91
2024/04/26 06:41:14;;;;;;;10.68;7.20;;;6.30;99.90;;;;;;5397040;26;20019;-92
2024/04/26 06:43:40;;;;;;;12.25;8.02;;;6.30;99.90;;;;;;5393096;26;20028;-94
2024/04/26 06:46:06;;;;;;;12.07;7.72;;;6.40;99.90;;;;;;5335250;26;20088;-92
2024/04/26 06:48:37;;;;;;;11.80;5.95;;;6.50;99.90;;;;;;5401691;26;20007;-91
2024/04/26 06:51:06;;;;;;;8.10;5.32;;;6.60;98.50;;;;;;5395490;26;20555;-90
2024/04/26 06:53:32;;;;;;;11.20;6.28;;;6.70;92.50;;;;;;5366443;26;20336;-93
2024/04/26 06:56:06;;;;;;;6.30;4.65;;;6.90;92.90;;;;;;5362399;26;20019;-92
2024/04/26 06:58:32;;;;;;;;;;;7.00;91.20;;;;;;5397756;26;20036;-90
2024/04/26 07:00:58;;;;;;;8.75;5.30;;;7.10;88.60;;;;;;5397328;26;19934;-91
2024/04/26 07:03:24;;;;;;;9.35;5.80;;;7.30;87.40;;;;;;5368870;26;20081;-94
2024/04/26 07:05:49;;;;;;;8.98;5.13;;;7.20;87.50;;;;;;5396046;26;20000;-90
2024/04/26 07:08:15;;;;;;;8.60;5.57;;;7.30;89.50;;;;;;5396405;26;20036;-94
2024/04/26 07:10:43;;;;;;;9.25;6.97;;;7.40;91.30;;;;;;5362590;26;19992;-95
2024/04/26 07:13:11;;;;;;;11.35;7.13;;;7.70;91.80;;;;;;5404490;26;20010;-94
2024/04/26 07:15:38;;;;;;;9.25;5.88;;;7.70;90.10;;;;;;5397304;26;20019;-91
2024/04/26 07:18:07;;;;;;;8.77;6.10;;;7.70;91.80;;;;;;5358989;26;20113;-91
2024/04/26 07:20:35;;;;;;;9.57;6.00;;;7.70;91.20;;;;;;5401443;26;20004;-93
2024/04/26 07:23:00;;;;;;;9.40;5.10;;;7.90;85.00;;;;;;5404026;26;20010;-96
2024/04/26 07:25:26;;;;;;;12.93;5.82;;;8.00;81.70;;;;;;5403275;26;20011;-92
2024/04/26 07:27:52;;;;;;;8.07;5.55;;;8.20;84.80;;;;;;5369814;26;20523;-91
2024/04/26 07:30:18;;;;;;;7.50;5.35;;;8.20;83.70;;;;;;5400535;26;19991;-91
2024/04/26 07:32:46;;;;;;;9.07;6.32;;;8.40;84.30;;;;;;5397169;26;20015;-93
2024/04/26 07:35:12;;;;;;;7.47;4.97;;;8.40;83.80;;;;;;5367154;26;20007;-92
2024/04/26 07:37:38;;;;;;;8.82;5.53;;;8.20;85.30;;;;;;5399024;26;20000;-92
2024/04/26 07:40:04;;;;;;;16.48;5.50;;;8.30;87.10;;;;;;5363177;26;20014;-90
2024/04/26 07:42:33;;;;;;;13.65;6.15;;;8.40;86.30;;;;;;5400123;26;20018;-92
2024/04/26 07:44:59;;;;;;;9.38;5.13;;;8.60;87.00;;;;;;5405469;26;20004;-93
2024/04/26 07:47:24;;;;;;;8.73;7.82;;;8.70;84.60;;;;;;5404045;26;20003;-92
2024/04/26 07:49:50;;;;;;;11.88;8.00;;;8.90;85.10;;;;;;5399524;26;20022;-94
2024/04/26 07:52:16;;;;;;;6.70;4.90;;;9.10;85.00;;;;;;5402763;26;20028;-90
2024/04/26 07:54:42;;;;;;;10.88;6.05;;;9.10;82.50;;;;;;5370953;26;20004;-91
2024/04/26 07:57:11;;;;;;;7.05;3.88;;;9.30;81.30;;;;;;5398496;26;20039;-89
2024/04/26 07:59:39;;;;;;;9.32;4.95;;;9.40;78.90;;;;;;5367296;26;20062;-93
2024/04/26 08:02:07;;;;;;;6.50;4.80;;;9.60;80.50;;;;;;5361668;26;20883;-95
2024/04/26 08:04:36;;;;;;;;;;;9.70;80.80;;;;;;5403012;26;20000;-91
2024/04/26 08:09:53;;;;;;;7.30;6.22;;;9.90;80.00;;;;;;5404658;26;20083;-92
2024/04/26 08:12:22;;;;;;;5.55;4.53;;;10.00;78.30;;;;;;5365365;26;20010;-91
2024/04/26 08:14:50;;;;;;;5.68;3.47;;;10.20;77.30;;;;;;5395872;26;20012;-94
2024/04/26 08:17:19;;;;;;;6.90;6.28;;;10.50;80.20;;;;;;5363315;26;20019;-91
2024/04/26 08:19:45;;;;;;;6.72;5.38;;;10.90;77.60;;;;;;5403129;26;20012;-91
2024/04/26 08:22:11;;;;;;;5.60;5.15;;;10.90;75.50;;;;;;5369071;26;20060;-89
2024/04/26 08:24:37;;;;;;;5.63;3.25;;;11.30;77.00;;;;;;5391079;26;20008;-91
2024/04/26 08:27:11;;;;;;;6.68;5.65;;;11.20;75.80;;;;;;5397849;26;20019;-92
2024/04/26 08:29:38;;;;;;;8.13;4.75;;;11.40;74.80;;;;;;5362908;26;20000;-92
2024/04/26 08:32:06;;;;;;;6.93;4.85;;;11.70;76.10;;;;;;5365855;26;20019;-89
2024/04/26 08:34:31;;;;;;;5.55;4.75;;;12.00;75.20;;;;;;5395891;26;20737;-92
2024/04/26 08:37:00;;;;;;;5.95;5.35;;;12.00;72.40;;;;;;5364292;26;20012;-92
2024/04/26 08:39:26;;;;;;;4.43;3.92;;;11.90;73.60;;;;;;5400294;26;20008;-92
2024/04/26 08:41:58;;;;;;;5.13;4.22;;;12.00;75.30;;;;;;5402453;26;20107;-92
2024/04/26 08:44:23;;;;;;;4.63;4.22;;;12.00;75.60;;;;;;5365949;26;20008;-92
2024/04/26 08:46:55;;;;;;;4.85;4.35;;;11.80;76.10;;;;;;5398271;26;20006;-93
2024/04/26 08:49:24;;;;;;;6.25;4.80;;;12.30;74.50;;;;;;5396847;26;20000;-94
2024/04/26 08:51:54;;;;;;;4.35;3.75;;;12.60;75.00;;;;;;5380000;26;20705;-92
2024/04/26 08:54:21;;;;;;;5.55;3.92;;;12.40;70.70;;;;;;5391575;26;20496;-91
2024/04/26 08:56:56;;;;;;;4.57;4.15;;;12.20;72.80;;;;;;5389376;26;20261;-91
2024/04/26 08:59:23;;;;;;;4.43;3.47;;;12.30;73.30;;;;;;5395642;26;20047;-91
2024/04/26 09:01:58;;;;;;;6.28;3.65;;;12.60;71.10;;;;;;5429070;26;20003;-89
2024/04/26 09:04:24;;;;;;;3.75;3.45;;;12.60;71.40;;;;;;5424212;26;20084;-88
2024/04/26 09:06:49;;;;;;;4.88;3.10;;;12.40;72.80;;;;;;5398094;26;20012;-92
2024/04/26 09:09:15;;;;;;;4.28;3.58;;;12.30;74.40;;;;;;5407817;26;20003;-92
2024/04/26 09:11:41;;;;;;;4.50;2.05;;;12.50;71.10;;;;;;5419828;26;20251;-91
2024/04/26 09:14:08;;;;;;;6.03;4.00;;;12.80;73.40;;;;;;5428765;26;19995;-92
2024/04/26 09:16:36;;;;;;;4.25;3.28;;;13.20;68.50;;;;;;5419382;26;20428;-92
2024/04/26 09:19:03;;;;;;;4.57;3.33;;;13.00;67.70;;;;;;5397811;26;20008;-92
2024/04/26 09:21:29;;;;;;;4.45;4.00;;;12.80;69.20;;;;;;5402213;26;20004;-93
2024/04/26 09:23:55;;;;;;;4.57;3.63;;;13.10;65.80;;;;;;5437739;26;19995;-94
2024/04/26 09:26:26;;;;;;;3.70;3.33;;;13.20;68.50;;;;;;5441201;26;20026;-94
2024/04/26 09:28:51;;;;;;;6.07;4.30;;;13.50;66.20;;;;;;5406519;26;19997;-93
2024/04/26 09:31:26;;;;;;;4.30;3.30;;;13.70;64.60;;;;;;5407241;26;19992;-94
2024/04/26 09:33:55;;;;;;;3.67;3.38;;;13.50;66.40;;;;;;5429258;26;19996;-94
2024/04/26 09:36:27;;;;;;;3.88;3.28;;;13.60;66.40;;;;;;5421057;26;19999;-94
2024/04/26 09:38:56;;;;;;;3.80;3.38;;;13.30;64.30;;;;;;5439217;26;19995;-91
2024/04/26 09:41:23;;;;;;;7.25;3.08;;;13.30;66.30;;;;;;5403688;26;20000;-91
2024/04/26 09:43:53;;;;;;;8.57;3.90;;;12.90;69.00;;;;;;5412582;26;20050;-91
2024/04/26 09:46:26;;;;;;;7.45;3.40;;;12.60;69.80;;;;;;5433470;26;20003;-91
2024/04/26 09:49:14;;;;;;;3.97;3.15;;;12.60;71.90;;;;;;5404853;26;19996;-91
2024/04/26 09:51:41;;;;;;;4.55;3.50;;;12.50;68.90;;;;;;5420419;26;19996;-92
2024/04/26 09:54:10;;;;;;;3.03;2.33;;;12.50;69.80;;;;;;5389516;26;20019;-92
2024/04/26 09:56:41;;;;;;;4.55;3.15;;;12.40;71.80;;;;;;5402525;26;20011;-92
2024/04/26 09:59:08;;;;;;;4.10;3.70;;;12.40;71.50;;;;;;5412689;26;20008;-89
2024/04/26 10:01:36;;;;;;;5.75;4.28;;;12.20;73.30;;;;;;5412641;26;20068;-92
2024/04/26 10:04:02;;;;;;;;;;;12.30;73.80;;;;;;5404044;26;20075;-91
2024/04/26 10:06:43;;;;;;;5.10;4.15;;;12.30;76.20;;;;;;5403721;26;19932;-92
2024/04/26 10:09:10;;;;;;;3.92;3.65;;;12.40;75.50;;;;;;5398212;26;20008;-91
2024/04/26 10:11:50;;;;;;;4.22;3.60;;;12.30;75.80;;;;;;5398116;26;20000;-96
2024/04/26 10:14:29;;;;;;;3.97;3.67;;;12.40;75.60;;;;;;5429386;26;20036;-92
2024/04/26 10:17:14;;;;;;;5.28;3.95;;;12.50;75.60;;;;;;5431955;26;20059;-92
2024/04/26 10:19:40;;;;;;;4.40;4.00;;;12.60;76.30;;;;;;5374928;26;20681;-90
2024/04/26 10:22:12;;;;;;;5.45;3.47;;;13.00;73.70;;;;;;5419925;26;20063;-90
2024/04/26 10:24:41;;;;;;;4.53;3.92;;;13.30;69.70;;;;;;5401798;26;20053;-90
2024/04/26 10:27:10;;;;;;;3.15;2.83;;;13.50;70.60;;;;;;5402016;26;20055;-89
2024/04/26 10:29:39;;;;;;;4.57;4.07;;;13.80;68.00;;;;;;5404635;26;20019;-93
2024/04/26 10:32:06;;;;;;;4.30;3.63;;;13.60;67.30;;;;;;5405738;26;20078;-90
2024/04/26 10:34:35;;;;;;;5.38;4.88;;;13.70;66.20;;;;;;5405139;26;20011;-92
2024/04/26 10:37:02;;;;;;;4.63;3.08;;;13.60;63.60;;;;;;5434180;26;20010;-91
2024/04/26 10:39:31;;;;;;;4.53;3.72;;;13.80;66.00;;;;;;5403429;26;20015;-92
2024/04/26 10:41:59;;;;;;;4.32;3.63;;;13.80;65.70;;;;;;5397114;26;20000;-91
2024/04/26 10:44:25;;;;;;;5.80;3.97;;;13.70;64.90;;;;;;5397411;26;20004;-92
2024/04/26 10:46:58;;;;;;;5.20;3.25;;;13.40;63.10;;;;;;5392877;26;20007;-95
2024/04/26 10:49:24;;;;;;;3.22;2.90;;;13.40;66.10;;;;;;5430802;26;20036;-90
2024/04/26 10:51:50;;;;;;;4.97;3.22;;;13.40;66.90;;;;;;5408857;26;20004;-89
2024/04/26 10:54:17;;;;;;;4.70;4.20;;;13.50;64.10;;;;;;5434619;26;20616;-89
2024/04/26 10:56:43;;;;;;;3.95;3.60;;;13.30;65.40;;;;;;5410746;26;20036;-89
2024/04/26 10:59:25;;;;;;;3.60;3.30;;;13.30;66.00;;;;;;5398548;26;20058;-88
2024/04/26 11:01:56;;;;;;;4.25;3.95;;;13.30;65.20;;;;;;5386800;26;20004;-90
2024/04/26 11:04:22;;;;;;;3.45;3.15;;;13.30;63.00;;;;;;5396057;26;20086;-94
2024/04/26 11:06:51;;;;;;;3.67;3.30;;;13.50;64.80;;;;;;5421372;26;20043;-89
2024/04/26 11:09:18;;;;;;;4.88;3.97;;;13.90;65.90;;;;;;5434175;26;19999;-91
2024/04/26 11:11:47;;;;;;;3.55;3.13;;;14.40;63.80;;;;;;5432212;26;20003;-92
2024/04/26 11:14:15;;;;;;;3.60;3.08;;;14.90;58.20;;;;;;5433582;26;20176;-93
2024/04/26 11:16:43;;;;;;;3.78;3.22;;;15.30;57.60;;;;;;5402972;26;20003;-90
2024/04/26 11:19:09;;;;;;;5.53;3.13;;;14.90;57.30;;;;;;5432648;26;19996;-91
2024/04/26 11:21:36;;;;;;;4.00;3.38;;;14.60;58.60;;;;;;5428531;26;20004;-93
2024/04/26 11:24:02;;;;;;;3.08;2.83;;;14.30;59.10;;;;;;5401605;26;19999;-92
2024/04/26 11:26:28;;;;;;;4.55;2.80;;;14.30;60.70;;;;;;5430247;26;19999;-93
2024/04/26 11:28:57;;;;;;;3.70;3.40;;;14.70;57.00;;;;;;5434110;26;20004;-94
2024/04/26 11:31:23;;;;;;;4.72;3.35;;;14.70;56.60;;;;;;5434004;26;20050;-93
2024/04/26 11:33:51;;;;;;;3.63;2.42;;;14.80;54.60;;;;;;5432667;26;20012;-95
2024/04/26 11:36:20;;;;;;;3.75;2.88;;;15.00;53.90;;;;;;5401978;26;20344;-88
2024/04/26 11:38:46;;;;;;;4.47;3.10;;;15.00;55.10;;;;;;5394953;26;20054;-94
2024/04/26 11:41:11;;;;;;;4.68;3.40;;;15.00;55.90;;;;;;5397497;26;20003;-92
2024/04/26 11:43:40;;;;;;;3.92;3.15;;;14.70;56.40;;;;;;5433101;26;20019;-90
2024/04/26 11:46:08;;;;;;;3.92;3.63;;;14.80;56.90;;;;;;5432829;26;20010;-92
2024/04/26 11:48:39;;;;;;;3.92;2.85;;;14.80;54.40;;;;;;5433752;26;19996;-91
2024/04/26 11:51:05;;;;;;;3.88;3.08;;;14.70;56.10;;;;;;5433959;26;19991;-90
2024/04/26 11:53:31;;;;;;;6.07;3.75;;;14.50;55.30;;;;;;5403162;26;20010;-91
2024/04/26 11:55:58;;;;;;;2.42;2.17;;;14.20;57.30;;;;;;5434773;26;19999;-91
2024/04/26 11:58:23;;;;;;;3.90;2.45;;;13.90;57.80;;;;;;5373376;26;20009;-93
2024/04/26 12:00:49;;;;;;;3.67;3.10;;;13.80;59.40;;;;;;5433721;26;20010;-91
2024/04/26 12:03:17;;;;;;;3.53;3.08;;;13.80;62.00;;;;;;5418455;26;19995;-91
2024/04/26 12:05:44;;;;;;;3.65;3.35;;;13.60;64.40;;;;;;5395431;26;20008;-93
2024/04/26 12:08:10;;;;;;;3.42;3.13;;;13.50;63.40;;;;;;5397496;26;20072;-92
2024/04/26 12:10:36;;;;;;;4.75;3.58;;;13.40;64.80;;;;;;5404104;26;20004;-92
2024/04/26 12:13:08;;;;;;;3.30;2.95;;;13.30;67.40;;;;;;5418178;26;20000;-90
2024/04/26 12:15:35;;;;;;;4.20;3.53;;;13.20;66.70;;;;;;5477093;21;20002;-90
2024/04/26 12:18:02;;;;;;;3.35;3.05;;;13.30;65.80;;;;;;5339218;26;20001;-90
2024/04/26 12:20:28;;;;;;;2.88;2.50;;;13.10;65.20;;;;;;5352653;26;20043;-89
2024/04/26 12:22:54;;;;;;;7.40;3.35;;;13.10;66.90;;;;;;5350123;26;20009;-91
2024/04/26 12:25:20;;;;;;;3.88;3.63;;;13.10;67.30;;;;;;5351514;26;20048;-90
2024/04/26 12:27:46;;;;;;;4.43;3.30;;;13.10;68.90;;;;;;5351716;26;20009;-91
2024/04/26 12:30:12;;;;;;;4.03;2.65;;;13.10;68.40;;;;;;5347672;26;20005;-90
2024/04/26 12:32:38;;;;;;;2.58;2.35;;;13.30;68.40;;;;;;5354771;26;20022;-90
2024/04/26 12:35:05;;;;;;;4.40;3.50;;;13.40;69.90;;;;;;5356419;26;19996;-89
2024/04/26 12:37:31;;;;;;;4.45;4.05;;;13.70;69.60;;;;;;5357659;26;20008;-89
2024/04/26 12:39:56;;;;;;;4.82;4.32;;;13.80;68.30;;;;;;5355909;26;20007;-90
2024/04/26 12:42:23;;;;;;;3.75;3.45;;;13.50;65.40;;;;;;5357060;26;19993;-89
2024/04/26 12:44:50;;;;;;;4.75;3.30;;;13.50;67.70;;;;;;5357050;26;20001;-90
2024/04/26 12:47:26;;;;;;;4.13;3.83;;;13.40;65.70;;;;;;5356642;26;20005;-91
2024/04/26 12:49:52;;;;;;;3.95;3.47;;;13.40;64.10;;;;;;5356893;26;20005;-90
2024/04/26 12:52:19;;;;;;;3.60;3.30;;;13.50;62.90;;;;;;5356596;26;20013;-91
2024/04/26 12:54:45;;;;;;;4.47;3.40;;;13.80;62.40;;;;;;5370296;26;19989;-92